Hovedside
METAR-TAF:

METAR-TAF

Lufthavner :

Esbjerg, Danmark

Esbjerg lufthavn

breddegrad: 55-32N, lengdegrad: 008-34E, høyde over havet: 30 m

Gjeldene værobservasjon

Denne rapporten ble laget for 27 minutter siden, klokken 13:20 UTC
Vind 11 kt fra Nord-nordøst
Temperatur -2°C
Luftfuktighet 63%
Trykk 1036 hPa
Sikt 10 km eller mer
lette snøbyger

METAR: EKEB 251320Z AUTO 02011KT 9999NDV -SHSN BKN034/// M02/M08 Q1036

Tid: 14:47 (13:47 UTC)

Varsel

Denne rapporten ble laget for 2 timer og 52 minutter siden, klokken 10:55 UTC
Varsel gyldig fra 25. klokken 12 UTC til 25. klokken 21 UTC
Vind 8 kt fra Nordøst
Sikt 10 km eller mer
Brutte skyer i en høyde av 2500 ft
Midlertidig
fra 25. klokken 12 UTC til 25. klokken 15 UTC
Sikt: 3000 m
lett snø

TAF: EKEB 251055Z 2512/2521 04008KT 9999 BKN025 TEMPO 2512/2515 3000 -SN

Værobservasjoner og værvarsel for over 4000 flyplasser (METAR- og TAF-rapporter).

Tilgjengelige stasjoner er representert av de røde og gule prikkene på kartet.

Hold musepekeren over prikken for å se navnet på stasjonen.

Klikk så for å se værobservasjoner og -varsler.

For å forandre kartet kan du klikke på den grønne knappen med svart kryss for å zoome inn, på den grønne knappen med strek for å zoome ut, eller på de grønne pilene for å se tilstøtende kart.


METAR-TAF: